sensor_id;sensor_type;location;lat;lon;timestamp;P1;durP1;ratioP1;P2;durP2;ratioP2
50681;SDS011;36779;52.168;20.878;2024-01-10T00:02:01;65.80;;;19.80;;
50681;SDS011;36779;52.168;20.878;2024-01-10T00:04:57;77.70;;;21.80;;
50681;SDS011;36779;52.168;20.878;2024-01-10T00:07:33;89.40;;;24.10;;
50681;SDS011;36779;52.168;20.878;2024-01-10T00:10:29;70.20;;;20.10;;
50681;SDS011;36779;52.168;20.878;2024-01-10T00:13:12;74.50;;;20.90;;
50681;SDS011;36779;52.168;20.878;2024-01-10T00:16:11;86.20;;;20.90;;
50681;SDS011;36779;52.168;20.878;2024-01-10T00:19:08;85.50;;;24.10;;
50681;SDS011;36779;52.168;20.878;2024-01-10T00:22:22;62.30;;;21.30;;
50681;SDS011;36779;52.168;20.878;2024-01-10T00:25:04;66.30;;;20.60;;
50681;SDS011;36779;52.168;20.878;2024-01-10T00:27:59;75.40;;;23.50;;
50681;SDS011;36779;52.168;20.878;2024-01-10T00:30:52;83.20;;;23.10;;
50681;SDS011;36779;52.168;20.878;2024-01-10T00:33:45;70.60;;;21.00;;
50681;SDS011;36779;52.168;20.878;2024-01-10T00:36:41;77.00;;;22.50;;
50681;SDS011;36779;52.168;20.878;2024-01-10T00:39:33;80.10;;;20.70;;
50681;SDS011;36779;52.168;20.878;2024-01-10T00:42:26;100.90;;;27.70;;
50681;SDS011;36779;52.168;20.878;2024-01-10T00:45:19;94.20;;;25.50;;
50681;SDS011;36779;52.168;20.878;2024-01-10T00:48:11;74.10;;;20.10;;
50681;SDS011;36779;52.168;20.878;2024-01-10T00:51:04;77.60;;;22.20;;
50681;SDS011;36779;52.168;20.878;2024-01-10T00:53:58;81.60;;;24.90;;
50681;SDS011;36779;52.168;20.878;2024-01-10T00:56:54;79.10;;;24.50;;
50681;SDS011;36779;52.168;20.878;2024-01-10T00:59:48;67.60;;;20.80;;
50681;SDS011;36779;52.168;20.878;2024-01-10T01:02:53;74.00;;;19.60;;
50681;SDS011;36779;52.168;20.878;2024-01-10T01:05:52;80.30;;;23.40;;
50681;SDS011;36779;52.168;20.878;2024-01-10T01:08:35;83.60;;;25.10;;
50681;SDS011;36779;52.168;20.878;2024-01-10T01:11:30;81.70;;;25.90;;
50681;SDS011;36779;52.168;20.878;2024-01-10T01:14:23;76.80;;;21.80;;
50681;SDS011;36779;52.168;20.878;2024-01-10T01:17:17;78.00;;;24.60;;
50681;SDS011;36779;52.168;20.878;2024-01-10T01:20:10;67.00;;;21.20;;
50681;SDS011;36779;52.168;20.878;2024-01-10T01:23:03;72.70;;;23.60;;
50681;SDS011;36779;52.168;20.878;2024-01-10T01:26:00;74.00;;;21.70;;
50681;SDS011;36779;52.168;20.878;2024-01-10T01:28:54;72.10;;;21.40;;
50681;SDS011;36779;52.168;20.878;2024-01-10T01:31:46;81.00;;;22.70;;
50681;SDS011;36779;52.168;20.878;2024-01-10T01:34:30;73.40;;;22.00;;
50681;SDS011;36779;52.168;20.878;2024-01-10T01:37:23;66.70;;;21.20;;
50681;SDS011;36779;52.168;20.878;2024-01-10T01:40:16;77.70;;;22.90;;
50681;SDS011;36779;52.168;20.878;2024-01-10T01:43:22;75.40;;;22.10;;
50681;SDS011;36779;52.168;20.878;2024-01-10T01:46:17;63.80;;;21.30;;
50681;SDS011;36779;52.168;20.878;2024-01-10T01:49:10;66.80;;;20.60;;
50681;SDS011;36779;52.168;20.878;2024-01-10T01:52:04;76.10;;;22.40;;
50681;SDS011;36779;52.168;20.878;2024-01-10T01:54:57;69.80;;;18.70;;
50681;SDS011;36779;52.168;20.878;2024-01-10T01:57:53;64.90;;;19.90;;
50681;SDS011;36779;52.168;20.878;2024-01-10T02:00:49;66.80;;;20.40;;
50681;SDS011;36779;52.168;20.878;2024-01-10T02:03:46;64.50;;;18.90;;
50681;SDS011;36779;52.168;20.878;2024-01-10T02:06:34;72.80;;;20.60;;
50681;SDS011;36779;52.168;20.878;2024-01-10T02:09:28;64.00;;;19.20;;
50681;SDS011;36779;52.168;20.878;2024-01-10T02:12:01;74.60;;;19.90;;
50681;SDS011;36779;52.168;20.878;2024-01-10T02:14:38;61.40;;;19.60;;
50681;SDS011;36779;52.168;20.878;2024-01-10T02:17:15;77.80;;;20.70;;
50681;SDS011;36779;52.168;20.878;2024-01-10T02:20:11;65.70;;;19.00;;
50681;SDS011;36779;52.168;20.878;2024-01-10T02:23:06;69.10;;;19.90;;
50681;SDS011;36779;52.168;20.878;2024-01-10T02:25:52;78.50;;;20.70;;
50681;SDS011;36779;52.168;20.878;2024-01-10T02:28:45;89.50;;;22.50;;
50681;SDS011;36779;52.168;20.878;2024-01-10T02:31:38;51.70;;;18.20;;
50681;SDS011;36779;52.168;20.878;2024-01-10T02:34:30;82.00;;;22.10;;
50681;SDS011;36779;52.168;20.878;2024-01-10T02:37:08;84.10;;;22.20;;
50681;SDS011;36779;52.168;20.878;2024-01-10T02:40:02;59.40;;;17.30;;
50681;SDS011;36779;52.168;20.878;2024-01-10T02:42:58;58.50;;;17.50;;
50681;SDS011;36779;52.168;20.878;2024-01-10T02:45:54;77.80;;;23.10;;
50681;SDS011;36779;52.168;20.878;2024-01-10T02:48:49;81.10;;;21.40;;
50681;SDS011;36779;52.168;20.878;2024-01-10T02:51:42;77.30;;;23.90;;
50681;SDS011;36779;52.168;20.878;2024-01-10T02:54:35;84.90;;;24.00;;
50681;SDS011;36779;52.168;20.878;2024-01-10T02:57:28;83.30;;;23.10;;
50681;SDS011;36779;52.168;20.878;2024-01-10T03:00:21;71.70;;;21.50;;
50681;SDS011;36779;52.168;20.878;2024-01-10T03:03:14;75.40;;;22.80;;
50681;SDS011;36779;52.168;20.878;2024-01-10T03:06:14;96.70;;;25.30;;
50681;SDS011;36779;52.168;20.878;2024-01-10T03:09:07;76.40;;;22.60;;
50681;SDS011;36779;52.168;20.878;2024-01-10T03:12:01;96.60;;;23.80;;
50681;SDS011;36779;52.168;20.878;2024-01-10T03:14:54;72.40;;;21.90;;
50681;SDS011;36779;52.168;20.878;2024-01-10T03:17:47;67.10;;;23.60;;
50681;SDS011;36779;52.168;20.878;2024-01-10T03:20:41;76.90;;;21.90;;
50681;SDS011;36779;52.168;20.878;2024-01-10T03:23:34;73.90;;;21.10;;
50681;SDS011;36779;52.168;20.878;2024-01-10T03:26:28;77.50;;;22.10;;
50681;SDS011;36779;52.168;20.878;2024-01-10T03:29:14;92.20;;;24.10;;
50681;SDS011;36779;52.168;20.878;2024-01-10T03:32:07;65.60;;;20.30;;
50681;SDS011;36779;52.168;20.878;2024-01-10T03:35:02;73.70;;;21.70;;
50681;SDS011;36779;52.168;20.878;2024-01-10T03:37:56;83.10;;;22.30;;
50681;SDS011;36779;52.168;20.878;2024-01-10T03:40:50;73.00;;;20.30;;
50681;SDS011;36779;52.168;20.878;2024-01-10T03:43:42;73.10;;;20.60;;
50681;SDS011;36779;52.168;20.878;2024-01-10T03:46:28;68.70;;;20.80;;
50681;SDS011;36779;52.168;20.878;2024-01-10T03:49:21;71.30;;;22.00;;
50681;SDS011;36779;52.168;20.878;2024-01-10T03:52:16;87.10;;;22.70;;
50681;SDS011;36779;52.168;20.878;2024-01-10T03:55:10;64.10;;;20.20;;
50681;SDS011;36779;52.168;20.878;2024-01-10T03:58:05;71.90;;;22.80;;
50681;SDS011;36779;52.168;20.878;2024-01-10T04:00:58;58.70;;;19.30;;
50681;SDS011;36779;52.168;20.878;2024-01-10T04:03:55;78.70;;;22.30;;
50681;SDS011;36779;52.168;20.878;2024-01-10T04:06:39;68.50;;;20.10;;
50681;SDS011;36779;52.168;20.878;2024-01-10T04:09:33;68.00;;;20.40;;
50681;SDS011;36779;52.168;20.878;2024-01-10T04:12:26;74.60;;;20.80;;
50681;SDS011;36779;52.168;20.878;2024-01-10T04:15:21;61.90;;;20.00;;
50681;SDS011;36779;52.168;20.878;2024-01-10T04:18:14;81.50;;;21.00;;
50681;SDS011;36779;52.168;20.878;2024-01-10T04:21:07;69.50;;;20.30;;
50681;SDS011;36779;52.168;20.878;2024-01-10T04:24:00;64.00;;;19.40;;
50681;SDS011;36779;52.168;20.878;2024-01-10T04:26:56;71.80;;;20.40;;
50681;SDS011;36779;52.168;20.878;2024-01-10T04:29:49;64.40;;;20.10;;
50681;SDS011;36779;52.168;20.878;2024-01-10T04:32:44;72.20;;;20.50;;
50681;SDS011;36779;52.168;20.878;2024-01-10T04:35:37;70.70;;;19.00;;
50681;SDS011;36779;52.168;20.878;2024-01-10T04:38:22;70.80;;;20.30;;
50681;SDS011;36779;52.168;20.878;2024-01-10T04:41:17;71.70;;;21.00;;
50681;SDS011;36779;52.168;20.878;2024-01-10T04:44:11;75.60;;;19.90;;
50681;SDS011;36779;52.168;20.878;2024-01-10T04:50:32;78.50;;;22.30;;
50681;SDS011;36779;52.168;20.878;2024-01-10T04:53:27;70.20;;;20.80;;
50681;SDS011;36779;52.168;20.878;2024-01-10T04:56:22;58.80;;;19.30;;
50681;SDS011;36779;52.168;20.878;2024-01-10T04:59:22;65.50;;;18.80;;
50681;SDS011;36779;52.168;20.878;2024-01-10T05:02:15;63.00;;;20.10;;
50681;SDS011;36779;52.168;20.878;2024-01-10T05:05:11;62.40;;;19.50;;
50681;SDS011;36779;52.168;20.878;2024-01-10T05:08:25;74.30;;;21.30;;
50681;SDS011;36779;52.168;20.878;2024-01-10T05:11:19;70.20;;;22.50;;
50681;SDS011;36779;52.168;20.878;2024-01-10T05:14:12;87.00;;;23.30;;
50681;SDS011;36779;52.168;20.878;2024-01-10T05:17:06;83.40;;;23.70;;
50681;SDS011;36779;52.168;20.878;2024-01-10T05:20:01;73.70;;;20.80;;
50681;SDS011;36779;52.168;20.878;2024-01-10T05:22:57;76.90;;;21.10;;
50681;SDS011;36779;52.168;20.878;2024-01-10T05:25:57;86.70;;;24.50;;
50681;SDS011;36779;52.168;20.878;2024-01-10T05:28:56;80.20;;;24.20;;
50681;SDS011;36779;52.168;20.878;2024-01-10T05:31:49;65.10;;;19.00;;
50681;SDS011;36779;52.168;20.878;2024-01-10T05:34:45;70.80;;;20.80;;
50681;SDS011;36779;52.168;20.878;2024-01-10T05:37:46;82.60;;;24.20;;
50681;SDS011;36779;52.168;20.878;2024-01-10T05:40:43;49.20;;;15.40;;
50681;SDS011;36779;52.168;20.878;2024-01-10T05:43:36;70.50;;;24.30;;
50681;SDS011;36779;52.168;20.878;2024-01-10T05:46:53;79.60;;;23.10;;
50681;SDS011;36779;52.168;20.878;2024-01-10T05:49:52;74.70;;;22.70;;
50681;SDS011;36779;52.168;20.878;2024-01-10T05:52:49;63.60;;;21.10;;
50681;SDS011;36779;52.168;20.878;2024-01-10T05:55:33;58.80;;;19.10;;
50681;SDS011;36779;52.168;20.878;2024-01-10T05:58:34;85.10;;;23.00;;
50681;SDS011;36779;52.168;20.878;2024-01-10T06:01:37;52.70;;;17.30;;
50681;SDS011;36779;52.168;20.878;2024-01-10T06:04:24;79.10;;;20.70;;
50681;SDS011;36779;52.168;20.878;2024-01-10T06:07:18;79.40;;;21.40;;
50681;SDS011;36779;52.168;20.878;2024-01-10T06:10:11;74.90;;;19.60;;
50681;SDS011;36779;52.168;20.878;2024-01-10T06:13:08;76.70;;;23.50;;
50681;SDS011;36779;52.168;20.878;2024-01-10T06:16:01;73.10;;;22.20;;
50681;SDS011;36779;52.168;20.878;2024-01-10T06:19:01;71.40;;;23.40;;
50681;SDS011;36779;52.168;20.878;2024-01-10T06:21:55;74.40;;;22.30;;
50681;SDS011;36779;52.168;20.878;2024-01-10T06:24:47;64.80;;;22.90;;
50681;SDS011;36779;52.168;20.878;2024-01-10T06:27:25;75.50;;;22.90;;
50681;SDS011;36779;52.168;20.878;2024-01-10T06:30:00;61.10;;;21.10;;
50681;SDS011;36779;52.168;20.878;2024-01-10T06:32:43;87.90;;;23.50;;
50681;SDS011;36779;52.168;20.878;2024-01-10T06:35:40;75.50;;;22.50;;
50681;SDS011;36779;52.168;20.878;2024-01-10T06:38:34;71.60;;;23.50;;
50681;SDS011;36779;52.168;20.878;2024-01-10T06:41:29;76.10;;;21.60;;
50681;SDS011;36779;52.168;20.878;2024-01-10T06:44:23;76.30;;;21.20;;
50681;SDS011;36779;52.168;20.878;2024-01-10T06:47:18;76.90;;;22.70;;
50681;SDS011;36779;52.168;20.878;2024-01-10T06:50:13;59.70;;;20.90;;
50681;SDS011;36779;52.168;20.878;2024-01-10T06:53:09;75.00;;;22.60;;
50681;SDS011;36779;52.168;20.878;2024-01-10T06:56:01;82.30;;;23.40;;
50681;SDS011;36779;52.168;20.878;2024-01-10T06:58:57;76.60;;;23.60;;
50681;SDS011;36779;52.168;20.878;2024-01-10T07:01:56;72.60;;;23.60;;
50681;SDS011;36779;52.168;20.878;2024-01-10T07:07:34;99.40;;;27.90;;
50681;SDS011;36779;52.168;20.878;2024-01-10T07:10:09;83.00;;;25.10;;
50681;SDS011;36779;52.168;20.878;2024-01-10T07:12:43;76.80;;;23.10;;
50681;SDS011;36779;52.168;20.878;2024-01-10T07:15:19;72.60;;;23.10;;
50681;SDS011;36779;52.168;20.878;2024-01-10T07:17:56;81.90;;;24.60;;
50681;SDS011;36779;52.168;20.878;2024-01-10T07:20:30;71.10;;;22.00;;
50681;SDS011;36779;52.168;20.878;2024-01-10T07:23:27;75.60;;;23.60;;
50681;SDS011;36779;52.168;20.878;2024-01-10T07:26:26;74.30;;;22.00;;
50681;SDS011;36779;52.168;20.878;2024-01-10T07:29:13;71.20;;;22.20;;
50681;SDS011;36779;52.168;20.878;2024-01-10T07:32:14;78.50;;;24.60;;
50681;SDS011;36779;52.168;20.878;2024-01-10T07:35:03;86.60;;;24.60;;
50681;SDS011;36779;52.168;20.878;2024-01-10T07:37:59;71.20;;;21.40;;
50681;SDS011;36779;52.168;20.878;2024-01-10T07:40:33;64.90;;;23.40;;
50681;SDS011;36779;52.168;20.878;2024-01-10T07:43:09;77.50;;;22.50;;
50681;SDS011;36779;52.168;20.878;2024-01-10T07:46:03;76.50;;;19.80;;
50681;SDS011;36779;52.168;20.878;2024-01-10T07:49:19;74.00;;;21.20;;
50681;SDS011;36779;52.168;20.878;2024-01-10T07:52:06;64.50;;;20.10;;
50681;SDS011;36779;52.168;20.878;2024-01-10T07:55:01;59.90;;;20.50;;
50681;SDS011;36779;52.168;20.878;2024-01-10T07:57:49;70.60;;;22.30;;
50681;SDS011;36779;52.168;20.878;2024-01-10T08:00:42;61.80;;;19.50;;
50681;SDS011;36779;52.168;20.878;2024-01-10T08:03:43;66.10;;;20.70;;
50681;SDS011;36779;52.168;20.878;2024-01-10T08:06:37;75.10;;;21.50;;
50681;SDS011;36779;52.168;20.878;2024-01-10T08:09:09;78.20;;;22.60;;
50681;SDS011;36779;52.168;20.878;2024-01-10T08:12:06;54.50;;;17.30;;
50681;SDS011;36779;52.168;20.878;2024-01-10T08:15:02;74.40;;;22.50;;
50681;SDS011;36779;52.168;20.878;2024-01-10T08:17:58;74.80;;;20.90;;
50681;SDS011;36779;52.168;20.878;2024-01-10T08:20:53;75.80;;;24.20;;
50681;SDS011;36779;52.168;20.878;2024-01-10T08:23:48;76.60;;;24.00;;
50681;SDS011;36779;52.168;20.878;2024-01-10T08:26:43;90.10;;;25.40;;
50681;SDS011;36779;52.168;20.878;2024-01-10T08:29:36;85.10;;;22.30;;
50681;SDS011;36779;52.168;20.878;2024-01-10T08:32:39;70.00;;;22.00;;
50681;SDS011;36779;52.168;20.878;2024-01-10T08:35:40;66.00;;;21.40;;
50681;SDS011;36779;52.168;20.878;2024-01-10T08:38:35;77.50;;;25.20;;
50681;SDS011;36779;52.168;20.878;2024-01-10T08:41:30;67.70;;;21.90;;
50681;SDS011;36779;52.168;20.878;2024-01-10T08:44:31;80.40;;;24.60;;
50681;SDS011;36779;52.168;20.878;2024-01-10T08:47:25;70.00;;;21.40;;
50681;SDS011;36779;52.168;20.878;2024-01-10T08:50:21;65.90;;;21.60;;
50681;SDS011;36779;52.168;20.878;2024-01-10T08:53:04;63.90;;;19.70;;
50681;SDS011;36779;52.168;20.878;2024-01-10T08:56:00;65.80;;;20.30;;
50681;SDS011;36779;52.168;20.878;2024-01-10T08:58:59;65.90;;;21.00;;
50681;SDS011;36779;52.168;20.878;2024-01-10T09:01:55;75.40;;;21.30;;
50681;SDS011;36779;52.168;20.878;2024-01-10T09:04:48;65.20;;;20.40;;
50681;SDS011;36779;52.168;20.878;2024-01-10T09:07:41;67.40;;;21.20;;
50681;SDS011;36779;52.168;20.878;2024-01-10T09:10:35;66.20;;;17.90;;
50681;SDS011;36779;52.168;20.878;2024-01-10T09:13:22;76.50;;;22.30;;
50681;SDS011;36779;52.168;20.878;2024-01-10T09:16:21;55.50;;;16.60;;
50681;SDS011;36779;52.168;20.878;2024-01-10T09:19:22;51.70;;;16.90;;
50681;SDS011;36779;52.168;20.878;2024-01-10T09:22:19;37.20;;;13.00;;
50681;SDS011;36779;52.168;20.878;2024-01-10T09:25:17;67.60;;;20.40;;
50681;SDS011;36779;52.168;20.878;2024-01-10T09:28:11;75.00;;;23.20;;
50681;SDS011;36779;52.168;20.878;2024-01-10T09:30:47;66.40;;;20.30;;
50681;SDS011;36779;52.168;20.878;2024-01-10T09:33:41;63.30;;;16.80;;
50681;SDS011;36779;52.168;20.878;2024-01-10T09:36:35;63.10;;;18.60;;
50681;SDS011;36779;52.168;20.878;2024-01-10T09:39:28;50.30;;;15.70;;
50681;SDS011;36779;52.168;20.878;2024-01-10T09:42:21;42.10;;;14.80;;
50681;SDS011;36779;52.168;20.878;2024-01-10T09:45:23;46.00;;;13.80;;
50681;SDS011;36779;52.168;20.878;2024-01-10T09:48:19;43.20;;;13.60;;
50681;SDS011;36779;52.168;20.878;2024-01-10T09:51:12;61.30;;;20.00;;
50681;SDS011;36779;52.168;20.878;2024-01-10T09:53:50;54.20;;;17.30;;
50681;SDS011;36779;52.168;20.878;2024-01-10T09:56:26;51.20;;;16.90;;
50681;SDS011;36779;52.168;20.878;2024-01-10T09:59:14;54.30;;;16.10;;
50681;SDS011;36779;52.168;20.878;2024-01-10T10:01:54;44.60;;;12.70;;
50681;SDS011;36779;52.168;20.878;2024-01-10T10:04:32;55.00;;;17.20;;
50681;SDS011;36779;52.168;20.878;2024-01-10T10:07:18;74.00;;;23.70;;
50681;SDS011;36779;52.168;20.878;2024-01-10T10:10:13;36.30;;;14.10;;
50681;SDS011;36779;52.168;20.878;2024-01-10T10:13:06;83.70;;;27.00;;
50681;SDS011;36779;52.168;20.878;2024-01-10T10:15:59;85.40;;;27.10;;
50681;SDS011;36779;52.168;20.878;2024-01-10T10:19:22;91.50;;;27.70;;
50681;SDS011;36779;52.168;20.878;2024-01-10T10:22:31;85.40;;;27.40;;
50681;SDS011;36779;52.168;20.878;2024-01-10T10:25:18;80.90;;;27.60;;
50681;SDS011;36779;52.168;20.878;2024-01-10T10:28:10;82.40;;;27.70;;
50681;SDS011;36779;52.168;20.878;2024-01-10T10:31:08;66.50;;;24.10;;
50681;SDS011;36779;52.168;20.878;2024-01-10T10:34:01;95.00;;;31.10;;
50681;SDS011;36779;52.168;20.878;2024-01-10T10:36:54;78.10;;;25.50;;
50681;SDS011;36779;52.168;20.878;2024-01-10T10:39:52;88.70;;;29.50;;
50681;SDS011;36779;52.168;20.878;2024-01-10T10:42:48;87.30;;;29.90;;
50681;SDS011;36779;52.168;20.878;2024-01-10T10:45:48;92.50;;;32.30;;
50681;SDS011;36779;52.168;20.878;2024-01-10T10:48:43;88.70;;;31.60;;
50681;SDS011;36779;52.168;20.878;2024-01-10T10:51:32;82.70;;;30.20;;
50681;SDS011;36779;52.168;20.878;2024-01-10T10:54:26;72.50;;;25.50;;
50681;SDS011;36779;52.168;20.878;2024-01-10T10:57:21;89.60;;;30.80;;
50681;SDS011;36779;52.168;20.878;2024-01-10T11:03:33;86.10;;;31.40;;
50681;SDS011;36779;52.168;20.878;2024-01-10T11:06:28;92.50;;;31.10;;
50681;SDS011;36779;52.168;20.878;2024-01-10T11:12:47;77.50;;;28.70;;
50681;SDS011;36779;52.168;20.878;2024-01-10T11:19:51;85.60;;;27.90;;
50681;SDS011;36779;52.168;20.878;2024-01-10T11:23:12;86.80;;;29.40;;
50681;SDS011;36779;52.168;20.878;2024-01-10T11:26:11;79.30;;;27.10;;
50681;SDS011;36779;52.168;20.878;2024-01-10T11:29:07;81.80;;;26.90;;
50681;SDS011;36779;52.168;20.878;2024-01-10T11:32:00;81.90;;;26.50;;
50681;SDS011;36779;52.168;20.878;2024-01-10T11:34:37;55.00;;;20.40;;
50681;SDS011;36779;52.168;20.878;2024-01-10T11:37:39;78.70;;;26.10;;
50681;SDS011;36779;52.168;20.878;2024-01-10T11:40:46;60.90;;;19.80;;
50681;SDS011;36779;52.168;20.878;2024-01-10T11:43:44;73.80;;;23.50;;
50681;SDS011;36779;52.168;20.878;2024-01-10T11:46:26;57.50;;;18.90;;
50681;SDS011;36779;52.168;20.878;2024-01-10T11:52:18;65.50;;;22.40;;
50681;SDS011;36779;52.168;20.878;2024-01-10T11:55:01;50.70;;;16.80;;
50681;SDS011;36779;52.168;20.878;2024-01-10T11:58:05;77.60;;;22.40;;
50681;SDS011;36779;52.168;20.878;2024-01-10T12:01:01;74.00;;;23.60;;
50681;SDS011;36779;52.168;20.878;2024-01-10T12:04:02;96.90;;;31.00;;
50681;SDS011;36779;52.168;20.878;2024-01-10T12:07:09;88.00;;;25.20;;
50681;SDS011;36779;52.168;20.878;2024-01-10T12:09:48;72.30;;;22.70;;
50681;SDS011;36779;52.168;20.878;2024-01-10T12:12:35;73.80;;;20.40;;
50681;SDS011;36779;52.168;20.878;2024-01-10T12:15:32;41.40;;;12.10;;
50681;SDS011;36779;52.168;20.878;2024-01-10T12:18:21;40.50;;;14.90;;
50681;SDS011;36779;52.168;20.878;2024-01-10T12:21:16;45.90;;;14.60;;
50681;SDS011;36779;52.168;20.878;2024-01-10T12:24:10;22.00;;;8.50;;
50681;SDS011;36779;52.168;20.878;2024-01-10T12:27:03;32.20;;;11.80;;
50681;SDS011;36779;52.168;20.878;2024-01-10T12:29:57;48.00;;;17.70;;
50681;SDS011;36779;52.168;20.878;2024-01-10T12:32:55;29.10;;;10.10;;
50681;SDS011;36779;52.168;20.878;2024-01-10T12:35:43;31.50;;;12.70;;
50681;SDS011;36779;52.168;20.878;2024-01-10T12:38:42;69.20;;;21.80;;
50681;SDS011;36779;52.168;20.878;2024-01-10T12:41:36;59.00;;;19.00;;
50681;SDS011;36779;52.168;20.878;2024-01-10T12:44:33;75.40;;;22.80;;
50681;SDS011;36779;52.168;20.878;2024-01-10T12:47:28;35.40;;;13.70;;
50681;SDS011;36779;52.168;20.878;2024-01-10T12:50:23;55.00;;;17.80;;
50681;SDS011;36779;52.168;20.878;2024-01-10T12:53:15;44.90;;;16.30;;
50681;SDS011;36779;52.168;20.878;2024-01-10T12:55:55;44.90;;;12.70;;
50681;SDS011;36779;52.168;20.878;2024-01-10T12:58:53;56.60;;;16.80;;
50681;SDS011;36779;52.168;20.878;2024-01-10T13:02:07;40.50;;;15.90;;
50681;SDS011;36779;52.168;20.878;2024-01-10T13:05:00;48.70;;;17.20;;
50681;SDS011;36779;52.168;20.878;2024-01-10T13:07:46;63.10;;;19.30;;
50681;SDS011;36779;52.168;20.878;2024-01-10T13:10:41;54.40;;;18.40;;
50681;SDS011;36779;52.168;20.878;2024-01-10T13:14:04;48.70;;;19.20;;
50681;SDS011;36779;52.168;20.878;2024-01-10T13:16:46;34.90;;;14.20;;
50681;SDS011;36779;52.168;20.878;2024-01-10T13:19:33;27.40;;;10.00;;
50681;SDS011;36779;52.168;20.878;2024-01-10T13:22:32;34.70;;;10.10;;
50681;SDS011;36779;52.168;20.878;2024-01-10T13:25:06;50.30;;;19.30;;
50681;SDS011;36779;52.168;20.878;2024-01-10T13:28:04;52.30;;;19.30;;
50681;SDS011;36779;52.168;20.878;2024-01-10T13:31:03;61.70;;;22.70;;
50681;SDS011;36779;52.168;20.878;2024-01-10T13:34:08;77.80;;;23.70;;
50681;SDS011;36779;52.168;20.878;2024-01-10T13:36:53;82.30;;;22.30;;
50681;SDS011;36779;52.168;20.878;2024-01-10T13:39:40;57.50;;;20.80;;
50681;SDS011;36779;52.168;20.878;2024-01-10T13:42:28;58.80;;;18.70;;
50681;SDS011;36779;52.168;20.878;2024-01-10T13:45:17;71.50;;;20.10;;
50681;SDS011;36779;52.168;20.878;2024-01-10T13:48:22;60.10;;;20.50;;
50681;SDS011;36779;52.168;20.878;2024-01-10T13:51:36;50.30;;;19.20;;
50681;SDS011;36779;52.168;20.878;2024-01-10T13:54:54;51.70;;;17.70;;
50681;SDS011;36779;52.168;20.878;2024-01-10T13:57:51;70.40;;;21.40;;
50681;SDS011;36779;52.168;20.878;2024-01-10T14:00:50;61.80;;;20.00;;
50681;SDS011;36779;52.168;20.878;2024-01-10T14:04:29;51.90;;;17.30;;
50681;SDS011;36779;52.168;20.878;2024-01-10T14:08:04;49.70;;;18.10;;
50681;SDS011;36779;52.168;20.878;2024-01-10T14:11:02;37.20;;;14.50;;
50681;SDS011;36779;52.168;20.878;2024-01-10T14:14:10;63.70;;;21.50;;
50681;SDS011;36779;52.168;20.878;2024-01-10T14:16:46;31.30;;;13.60;;
50681;SDS011;36779;52.168;20.878;2024-01-10T14:19:52;59.60;;;18.70;;
50681;SDS011;36779;52.168;20.878;2024-01-10T14:23:33;50.40;;;20.90;;
50681;SDS011;36779;52.168;20.878;2024-01-10T14:26:21;62.80;;;24.00;;
50681;SDS011;36779;52.168;20.878;2024-01-10T14:29:44;52.40;;;20.40;;
50681;SDS011;36779;52.168;20.878;2024-01-10T14:32:52;55.10;;;20.40;;
50681;SDS011;36779;52.168;20.878;2024-01-10T14:35:39;67.80;;;25.00;;
50681;SDS011;36779;52.168;20.878;2024-01-10T14:39:01;48.30;;;18.60;;
50681;SDS011;36779;52.168;20.878;2024-01-10T14:41:40;95.50;;;26.30;;
50681;SDS011;36779;52.168;20.878;2024-01-10T14:44:43;71.10;;;23.70;;
50681;SDS011;36779;52.168;20.878;2024-01-10T14:47:55;58.30;;;20.40;;
50681;SDS011;36779;52.168;20.878;2024-01-10T14:51:10;76.00;;;24.30;;
50681;SDS011;36779;52.168;20.878;2024-01-10T14:54:06;100.30;;;31.40;;
50681;SDS011;36779;52.168;20.878;2024-01-10T14:57:03;105.10;;;30.50;;
50681;SDS011;36779;52.168;20.878;2024-01-10T15:00:03;120.20;;;31.90;;
50681;SDS011;36779;52.168;20.878;2024-01-10T15:03:03;102.50;;;33.10;;
50681;SDS011;36779;52.168;20.878;2024-01-10T15:06:04;105.80;;;31.20;;
50681;SDS011;36779;52.168;20.878;2024-01-10T15:09:21;111.30;;;28.30;;
50681;SDS011;36779;52.168;20.878;2024-01-10T15:12:32;95.70;;;27.60;;
50681;SDS011;36779;52.168;20.878;2024-01-10T15:15:29;86.80;;;25.20;;
50681;SDS011;36779;52.168;20.878;2024-01-10T15:18:22;94.30;;;27.40;;
50681;SDS011;36779;52.168;20.878;2024-01-10T15:21:20;80.10;;;26.40;;
50681;SDS011;36779;52.168;20.878;2024-01-10T15:24:19;87.00;;;27.00;;
50681;SDS011;36779;52.168;20.878;2024-01-10T15:27:24;97.50;;;27.40;;
50681;SDS011;36779;52.168;20.878;2024-01-10T15:30:30;80.20;;;25.80;;
50681;SDS011;36779;52.168;20.878;2024-01-10T15:33:40;88.40;;;26.00;;
50681;SDS011;36779;52.168;20.878;2024-01-10T15:39:36;70.50;;;21.90;;
50681;SDS011;36779;52.168;20.878;2024-01-10T15:42:31;91.00;;;23.50;;
50681;SDS011;36779;52.168;20.878;2024-01-10T15:45:27;84.90;;;22.90;;
50681;SDS011;36779;52.168;20.878;2024-01-10T15:48:25;83.90;;;26.30;;
50681;SDS011;36779;52.168;20.878;2024-01-10T15:51:18;73.90;;;25.70;;
50681;SDS011;36779;52.168;20.878;2024-01-10T15:54:11;76.10;;;24.60;;
50681;SDS011;36779;52.168;20.878;2024-01-10T15:57:05;71.60;;;23.00;;
50681;SDS011;36779;52.168;20.878;2024-01-10T15:59:57;75.00;;;24.60;;
50681;SDS011;36779;52.168;20.878;2024-01-10T16:02:54;74.10;;;23.30;;
50681;SDS011;36779;52.168;20.878;2024-01-10T16:08:56;71.80;;;21.90;;
50681;SDS011;36779;52.168;20.878;2024-01-10T16:11:54;50.00;;;17.80;;
50681;SDS011;36779;52.168;20.878;2024-01-10T16:14:53;35.30;;;13.90;;
50681;SDS011;36779;52.168;20.878;2024-01-10T16:17:52;68.10;;;20.10;;
50681;SDS011;36779;52.168;20.878;2024-01-10T16:20:41;88.30;;;24.40;;
50681;SDS011;36779;52.168;20.878;2024-01-10T16:23:33;73.50;;;24.80;;
50681;SDS011;36779;52.168;20.878;2024-01-10T16:26:28;90.10;;;25.20;;
50681;SDS011;36779;52.168;20.878;2024-01-10T16:51:45;114.40;;;31.70;;
50681;SDS011;36779;52.168;20.878;2024-01-10T17:42:09;88.90;;;25.30;;
50681;SDS011;36779;52.168;20.878;2024-01-10T18:34:16;74.30;;;23.70;;
50681;SDS011;36779;52.168;20.878;2024-01-10T18:37:11;75.90;;;23.70;;
50681;SDS011;36779;52.168;20.878;2024-01-10T18:40:05;82.60;;;22.00;;
50681;SDS011;36779;52.168;20.878;2024-01-10T18:43:06;87.10;;;23.50;;
50681;SDS011;36779;52.168;20.878;2024-01-10T18:46:02;78.90;;;22.30;;
50681;SDS011;36779;52.168;20.878;2024-01-10T18:49:02;66.70;;;22.70;;
50681;SDS011;36779;52.168;20.878;2024-01-10T18:51:57;89.20;;;31.60;;
50681;SDS011;36779;52.168;20.878;2024-01-10T18:54:57;92.00;;;26.50;;
50681;SDS011;36779;52.168;20.878;2024-01-10T19:38:26;85.40;;;24.80;;
50681;SDS011;36779;52.168;20.878;2024-01-10T19:41:20;95.60;;;27.60;;
50681;SDS011;36779;52.168;20.878;2024-01-10T19:44:18;75.20;;;22.30;;
50681;SDS011;36779;52.168;20.878;2024-01-10T19:47:10;88.20;;;23.90;;
50681;SDS011;36779;52.168;20.878;2024-01-10T20:09:19;75.20;;;22.20;;
50681;SDS011;36779;52.168;20.878;2024-01-10T20:12:12;94.60;;;26.60;;